Aviation Digital Data Service (ADDS)

Output produced by TAFs form (2354 UTC 24 February 2018)
found at http://aviationweather.gov/adds/tafs/
 
KRIL 242320Z 2500/2524 00000KT P6SM BKN100 
     FM250600 VRB03KT P6SM OVC060 
     FM251300 25004KT P6SM BKN035 OVC040 
     FM251800 27006KT P6SM FEW040 SCT070